sensor_id;sensor_type;location;lat;lon;timestamp;pressure;altitude;pressure_sealevel;temperature;humidity
53671;BME280;39571;48.612;8.088;2022-10-16T00:01:31;99646.50;;;21.28;64.72
53671;BME280;39571;48.612;8.088;2022-10-16T00:03:58;99646.69;;;21.25;64.88
53671;BME280;39571;48.612;8.088;2022-10-16T00:06:25;99646.50;;;21.28;64.67
53671;BME280;39571;48.612;8.088;2022-10-16T00:08:50;99636.91;;;21.26;64.62
53671;BME280;39571;48.612;8.088;2022-10-16T00:11:21;99634.19;;;21.27;64.66
53671;BME280;39571;48.612;8.088;2022-10-16T00:13:48;99630.72;;;21.25;64.61
53671;BME280;39571;48.612;8.088;2022-10-16T00:16:15;99629.88;;;21.25;64.51
53671;BME280;39571;48.612;8.088;2022-10-16T00:18:41;99638.91;;;21.22;64.71
53671;BME280;39571;48.612;8.088;2022-10-16T00:21:09;99628.19;;;21.24;64.54
53671;BME280;39571;48.612;8.088;2022-10-16T00:23:34;99632.44;;;21.26;64.63
53671;BME280;39571;48.612;8.088;2022-10-16T00:26:03;99635.31;;;21.23;64.55
53671;BME280;39571;48.612;8.088;2022-10-16T00:28:29;99637.28;;;21.20;64.68
53671;BME280;39571;48.612;8.088;2022-10-16T00:30:55;99641.75;;;21.19;64.65
53671;BME280;39571;48.612;8.088;2022-10-16T00:33:21;99643.47;;;21.20;64.71
53671;BME280;39571;48.612;8.088;2022-10-16T00:35:46;99631.66;;;21.24;64.59
53671;BME280;39571;48.612;8.088;2022-10-16T00:38:12;99635.56;;;21.19;64.83
53671;BME280;39571;48.612;8.088;2022-10-16T00:40:38;99637.28;;;21.20;64.75
53671;BME280;39571;48.612;8.088;2022-10-16T00:43:55;99625.09;;;21.15;64.51
53671;BME280;39571;48.612;8.088;2022-10-16T00:45:54;99634.03;;;21.14;64.84
53671;BME280;39571;48.612;8.088;2022-10-16T00:48:20;99640.13;;;21.17;64.50
53671;BME280;39571;48.612;8.088;2022-10-16T00:50:45;99645.34;;;21.18;64.61
53671;BME280;39571;48.612;8.088;2022-10-16T00:53:10;99654.13;;;21.20;64.58
53671;BME280;39571;48.612;8.088;2022-10-16T00:55:37;99645.34;;;21.18;64.70
53671;BME280;39571;48.612;8.088;2022-10-16T00:58:02;99650.84;;;21.15;64.76
53671;BME280;39571;48.612;8.088;2022-10-16T01:00:27;99648.00;;;21.18;64.46
53671;BME280;39571;48.612;8.088;2022-10-16T01:03:01;99648.94;;;21.17;64.48
53671;BME280;39571;48.612;8.088;2022-10-16T01:05:31;99654.44;;;21.14;64.85
53671;BME280;39571;48.612;8.088;2022-10-16T01:10:52;99656.16;;;21.15;64.58
53671;BME280;39571;48.612;8.088;2022-10-16T01:13:25;99652.66;;;21.14;64.78
53671;BME280;39571;48.612;8.088;2022-10-16T01:19:02;99638.47;;;21.14;64.39
53671;BME280;39571;48.612;8.088;2022-10-16T01:21:36;99638.59;;;21.12;64.46
53671;BME280;39571;48.612;8.088;2022-10-16T01:26:50;99648.59;;;21.07;64.81
53671;BME280;39571;48.612;8.088;2022-10-16T01:29:28;99650.94;;;21.13;64.65
53671;BME280;39571;48.612;8.088;2022-10-16T01:31:59;99647.44;;;21.13;64.54
53671;BME280;39571;48.612;8.088;2022-10-16T01:34:36;99647.44;;;21.13;64.72
53671;BME280;39571;48.612;8.088;2022-10-16T01:37:05;99648.38;;;21.12;64.48
53671;BME280;39571;48.612;8.088;2022-10-16T01:39:35;99659.94;;;21.11;64.52
53671;BME280;39571;48.612;8.088;2022-10-16T01:42:13;99652.91;;;21.10;64.54
53671;BME280;39571;48.612;8.088;2022-10-16T01:44:41;99640.38;;;21.12;64.69
53671;BME280;39571;48.612;8.088;2022-10-16T01:47:09;99635.06;;;21.12;64.63
53671;BME280;39571;48.612;8.088;2022-10-16T01:49:37;99644.66;;;21.14;64.74
53671;BME280;39571;48.612;8.088;2022-10-16T01:52:07;99640.38;;;21.12;64.69
53671;BME280;39571;48.612;8.088;2022-10-16T01:54:35;99649.47;;;21.08;64.74
53671;BME280;39571;48.612;8.088;2022-10-16T01:57:04;99640.53;;;21.09;64.56
53671;BME280;39571;48.612;8.088;2022-10-16T01:59:33;99636.16;;;21.08;64.73
53671;BME280;39571;48.612;8.088;2022-10-16T02:02:06;99632.56;;;21.09;64.76
53671;BME280;39571;48.612;8.088;2022-10-16T02:05:02;99638.81;;;21.08;64.67
53671;BME280;39571;48.612;8.088;2022-10-16T02:07:30;99641.31;;;21.11;64.66
53671;BME280;39571;48.612;8.088;2022-10-16T02:09:55;99649.31;;;21.11;64.49
53671;BME280;39571;48.612;8.088;2022-10-16T02:12:27;99647.59;;;21.10;64.55
53671;BME280;39571;48.612;8.088;2022-10-16T02:14:53;99651.19;;;21.09;64.50
53671;BME280;39571;48.612;8.088;2022-10-16T02:17:19;99651.38;;;21.06;64.72
53671;BME280;39571;48.612;8.088;2022-10-16T02:19:47;99653.06;;;21.07;64.76
53671;BME280;39571;48.612;8.088;2022-10-16T02:22:34;99651.38;;;21.06;64.59
53671;BME280;39571;48.612;8.088;2022-10-16T02:25:16;99656.00;;;21.02;64.76
53671;BME280;39571;48.612;8.088;2022-10-16T02:28:03;99650.50;;;21.05;64.92
53671;BME280;39571;48.612;8.088;2022-10-16T02:33:09;99647.72;;;21.07;64.44
53671;BME280;39571;48.612;8.088;2022-10-16T02:35:36;99646.03;;;21.06;64.54
53671;BME280;39571;48.612;8.088;2022-10-16T02:38:03;99644.31;;;21.05;64.68
53671;BME280;39571;48.612;8.088;2022-10-16T02:40:29;99644.50;;;21.02;64.57
53671;BME280;39571;48.612;8.088;2022-10-16T02:42:55;99646.38;;;21.00;64.85
53671;BME280;39571;48.612;8.088;2022-10-16T02:45:22;99647.41;;;20.97;64.96
53671;BME280;39571;48.612;8.088;2022-10-16T02:47:47;99653.59;;;20.98;64.97
53671;BME280;39571;48.612;8.088;2022-10-16T02:50:13;99654.53;;;20.97;65.00
53671;BME280;39571;48.612;8.088;2022-10-16T02:52:38;99648.28;;;20.98;64.96
53671;BME280;39571;48.612;8.088;2022-10-16T02:55:04;99648.28;;;20.98;65.13
53671;BME280;39571;48.612;8.088;2022-10-16T02:57:30;99653.41;;;21.01;64.86
53671;BME280;39571;48.612;8.088;2022-10-16T02:59:56;99658.06;;;20.97;65.00
53671;BME280;39571;48.612;8.088;2022-10-16T03:02:21;99658.06;;;20.97;64.77
53671;BME280;39571;48.612;8.088;2022-10-16T03:04:47;99664.06;;;21.01;65.04
53671;BME280;39571;48.612;8.088;2022-10-16T03:07:12;99656.88;;;21.03;64.75
53671;BME280;39571;48.612;8.088;2022-10-16T03:09:37;99664.25;;;20.98;64.93
53671;BME280;39571;48.612;8.088;2022-10-16T03:12:03;99660.66;;;20.99;64.98
53671;BME280;39571;48.612;8.088;2022-10-16T03:14:28;99664.25;;;20.98;64.93
53671;BME280;39571;48.612;8.088;2022-10-16T03:16:54;99650.94;;;20.98;65.10
53671;BME280;39571;48.612;8.088;2022-10-16T03:19:19;99653.59;;;20.98;64.86
53671;BME280;39571;48.612;8.088;2022-10-16T03:21:45;99650.00;;;20.99;65.07
53671;BME280;39571;48.612;8.088;2022-10-16T03:24:10;99649.13;;;20.98;65.05
53671;BME280;39571;48.612;8.088;2022-10-16T03:26:36;99643.72;;;21.00;64.70
53671;BME280;39571;48.612;8.088;2022-10-16T03:29:02;99653.59;;;20.98;65.04
53671;BME280;39571;48.612;8.088;2022-10-16T03:31:28;99646.56;;;20.97;64.80
53671;BME280;39571;48.612;8.088;2022-10-16T03:33:54;99643.72;;;21.00;65.02
53671;BME280;39571;48.612;8.088;2022-10-16T03:36:19;99637.63;;;20.98;65.06
53671;BME280;39571;48.612;8.088;2022-10-16T03:38:44;99635.72;;;21.00;65.11
53671;BME280;39571;48.612;8.088;2022-10-16T03:41:10;99632.31;;;20.98;64.90
53671;BME280;39571;48.612;8.088;2022-10-16T03:43:35;99641.06;;;21.00;64.94
53671;BME280;39571;48.612;8.088;2022-10-16T03:46:01;99634.03;;;20.99;64.97
53671;BME280;39571;48.612;8.088;2022-10-16T03:48:26;99630.59;;;20.97;65.03
53671;BME280;39571;48.612;8.088;2022-10-16T03:50:51;99636.69;;;20.99;64.87
53671;BME280;39571;48.612;8.088;2022-10-16T03:53:17;99634.03;;;20.99;64.67
53671;BME280;39571;48.612;8.088;2022-10-16T03:55:43;99633.34;;;20.95;64.85
53671;BME280;39571;48.612;8.088;2022-10-16T03:58:08;99639.44;;;20.97;64.96
53671;BME280;39571;48.612;8.088;2022-10-16T04:00:34;99635.22;;;20.93;64.78
53671;BME280;39571;48.612;8.088;2022-10-16T04:03:00;99651.13;;;20.95;64.94
53671;BME280;39571;48.612;8.088;2022-10-16T04:05:25;99646.91;;;20.91;64.88
53671;BME280;39571;48.612;8.088;2022-10-16T04:07:51;99648.63;;;20.92;64.89
53671;BME280;39571;48.612;8.088;2022-10-16T04:10:16;99652.06;;;20.94;64.83
53671;BME280;39571;48.612;8.088;2022-10-16T04:12:42;99660.97;;;20.93;64.89
53671;BME280;39571;48.612;8.088;2022-10-16T04:15:07;99664.41;;;20.95;64.75
53671;BME280;39571;48.612;8.088;2022-10-16T04:17:33;99666.16;;;20.96;64.72
53671;BME280;39571;48.612;8.088;2022-10-16T04:19:58;99665.28;;;20.95;64.66
53671;BME280;39571;48.612;8.088;2022-10-16T04:22:24;99661.75;;;20.95;64.71
53671;BME280;39571;48.612;8.088;2022-10-16T04:24:49;99676.94;;;20.93;64.76
53671;BME280;39571;48.612;8.088;2022-10-16T04:27:14;99679.53;;;20.94;64.70
53671;BME280;39571;48.612;8.088;2022-10-16T04:29:40;99678.84;;;20.91;64.56
53671;BME280;39571;48.612;8.088;2022-10-16T04:32:05;99673.34;;;20.94;64.86
53671;BME280;39571;48.612;8.088;2022-10-16T04:34:32;99681.31;;;20.94;64.63
53671;BME280;39571;48.612;8.088;2022-10-16T04:36:57;99668.94;;;20.93;64.51
53671;BME280;39571;48.612;8.088;2022-10-16T04:39:23;99676.94;;;20.93;64.67
53671;BME280;39571;48.612;8.088;2022-10-16T04:41:48;99683.97;;;20.94;64.52
53671;BME280;39571;48.612;8.088;2022-10-16T04:44:13;99694.63;;;20.94;64.61
53671;BME280;39571;48.612;8.088;2022-10-16T04:46:39;99693.75;;;20.93;64.70
53671;BME280;39571;48.612;8.088;2022-10-16T04:49:04;99697.47;;;20.91;64.49
53671;BME280;39571;48.612;8.088;2022-10-16T04:51:29;99703.53;;;20.93;64.63
53671;BME280;39571;48.612;8.088;2022-10-16T04:53:55;99705.44;;;20.91;64.62
53671;BME280;39571;48.612;8.088;2022-10-16T04:56:20;99704.59;;;20.90;64.79
53671;BME280;39571;48.612;8.088;2022-10-16T04:58:46;99712.66;;;20.89;64.41
53671;BME280;39571;48.612;8.088;2022-10-16T05:01:12;99716.94;;;20.91;64.59
53671;BME280;39571;48.612;8.088;2022-10-16T05:03:38;99709.22;;;20.87;64.59
53671;BME280;39571;48.612;8.088;2022-10-16T05:06:05;99718.25;;;20.84;64.82
53671;BME280;39571;48.612;8.088;2022-10-16T05:08:31;99727.94;;;20.85;64.82
53671;BME280;39571;48.612;8.088;2022-10-16T05:10:56;99727.09;;;20.85;64.86
53671;BME280;39571;48.612;8.088;2022-10-16T05:13:21;99735.94;;;20.85;64.70
53671;BME280;39571;48.612;8.088;2022-10-16T05:15:48;99739.34;;;20.87;64.71
53671;BME280;39571;48.612;8.088;2022-10-16T05:18:14;99742.19;;;20.84;64.58
53671;BME280;39571;48.612;8.088;2022-10-16T05:20:40;99745.59;;;20.86;64.52
53671;BME280;39571;48.612;8.088;2022-10-16T05:23:06;99749.91;;;20.89;64.33
53671;BME280;39571;48.612;8.088;2022-10-16T05:25:31;99736.78;;;20.86;64.47
53671;BME280;39571;48.612;8.088;2022-10-16T05:27:57;99751.09;;;20.83;64.79
53671;BME280;39571;48.612;8.088;2022-10-16T05:30:22;99744.91;;;20.83;64.65
53671;BME280;39571;48.612;8.088;2022-10-16T05:32:49;99740.38;;;20.85;64.67
53671;BME280;39571;48.612;8.088;2022-10-16T05:35:15;99739.44;;;20.86;64.49
53671;BME280;39571;48.612;8.088;2022-10-16T05:37:41;99736.00;;;20.84;64.69
53671;BME280;39571;48.612;8.088;2022-10-16T05:40:07;99743.03;;;20.85;64.50
53671;BME280;39571;48.612;8.088;2022-10-16T05:42:33;99746.47;;;20.87;64.41
53671;BME280;39571;48.612;8.088;2022-10-16T05:44:58;99749.41;;;20.82;64.35
53671;BME280;39571;48.612;8.088;2022-10-16T05:47:23;99735.13;;;20.83;64.55
53671;BME280;39571;48.612;8.088;2022-10-16T05:49:49;99728.13;;;20.82;64.48
53671;BME280;39571;48.612;8.088;2022-10-16T05:52:14;99730.84;;;20.81;64.19
53671;BME280;39571;48.612;8.088;2022-10-16T05:54:39;99741.31;;;20.84;64.48
53671;BME280;39571;48.612;8.088;2022-10-16T05:57:05;99742.34;;;20.81;64.51
53671;BME280;39571;48.612;8.088;2022-10-16T05:59:31;99760.13;;;20.81;64.52
53671;BME280;39571;48.612;8.088;2022-10-16T06:01:56;99760.03;;;20.82;64.52
53671;BME280;39571;48.612;8.088;2022-10-16T06:04:22;99758.31;;;20.81;64.31
53671;BME280;39571;48.612;8.088;2022-10-16T06:06:47;99752.91;;;20.83;64.43
53671;BME280;39571;48.612;8.088;2022-10-16T06:09:12;99755.91;;;20.77;64.48
53671;BME280;39571;48.612;8.088;2022-10-16T06:11:38;99754.03;;;20.79;64.42
53671;BME280;39571;48.612;8.088;2022-10-16T06:14:03;99750.56;;;20.77;64.54
53671;BME280;39571;48.612;8.088;2022-10-16T06:16:35;99752.47;;;20.75;64.84
53671;BME280;39571;48.612;8.088;2022-10-16T06:19:01;99742.59;;;20.77;64.41
53671;BME280;39571;48.612;8.088;2022-10-16T06:21:28;99746.81;;;20.81;64.52
53671;BME280;39571;48.612;8.088;2022-10-16T06:23:56;99747.75;;;20.80;64.63
53671;BME280;39571;48.612;8.088;2022-10-16T06:26:24;99757.38;;;20.82;64.39
53671;BME280;39571;48.612;8.088;2022-10-16T06:28:50;99761.03;;;20.80;64.34
53671;BME280;39571;48.612;8.088;2022-10-16T06:31:16;99754.88;;;20.79;64.58
53671;BME280;39571;48.612;8.088;2022-10-16T06:33:42;99763.63;;;20.81;64.35
53671;BME280;39571;48.612;8.088;2022-10-16T06:36:16;99757.44;;;20.81;64.50
53671;BME280;39571;48.612;8.088;2022-10-16T06:38:42;99761.03;;;20.80;64.61
53671;BME280;39571;48.612;8.088;2022-10-16T06:41:09;99762.69;;;20.82;64.55
53671;BME280;39571;48.612;8.088;2022-10-16T06:43:36;99768.09;;;20.81;64.39
53671;BME280;39571;48.612;8.088;2022-10-16T06:46:03;99779.50;;;20.83;64.43
53671;BME280;39571;48.612;8.088;2022-10-16T06:48:29;99777.63;;;20.85;64.48
53671;BME280;39571;48.612;8.088;2022-10-16T06:51:15;99769.03;;;20.80;64.65
53671;BME280;39571;48.612;8.088;2022-10-16T06:53:43;99769.81;;;20.82;64.73
53671;BME280;39571;48.612;8.088;2022-10-16T06:56:14;99781.22;;;20.84;64.57
53671;BME280;39571;48.612;8.088;2022-10-16T06:58:41;99784.06;;;20.81;64.37
53671;BME280;39571;48.612;8.088;2022-10-16T07:01:07;99791.09;;;20.82;64.65
53671;BME280;39571;48.612;8.088;2022-10-16T07:03:35;99800.03;;;20.81;64.74
53671;BME280;39571;48.612;8.088;2022-10-16T07:06:02;99803.44;;;20.83;64.41
53671;BME280;39571;48.612;8.088;2022-10-16T07:08:34;99802.59;;;20.82;64.64
53671;BME280;39571;48.612;8.088;2022-10-16T07:11:01;99806.09;;;20.83;64.17
53671;BME280;39571;48.612;8.088;2022-10-16T07:13:27;99815.63;;;20.87;64.21
53671;BME280;39571;48.612;8.088;2022-10-16T07:15:52;99806.72;;;20.88;64.19
53671;BME280;39571;48.612;8.088;2022-10-16T07:18:17;99802.44;;;20.85;64.07
53671;BME280;39571;48.612;8.088;2022-10-16T07:20:43;99796.25;;;20.85;64.21
53671;BME280;39571;48.612;8.088;2022-10-16T07:23:08;99797.34;;;20.81;64.31
53671;BME280;39571;48.612;8.088;2022-10-16T07:25:34;99810.66;;;20.81;64.46
53671;BME280;39571;48.612;8.088;2022-10-16T07:27:59;99815.81;;;20.84;64.26
53671;BME280;39571;48.612;8.088;2022-10-16T07:30:24;99821.13;;;20.84;64.14
53671;BME280;39571;48.612;8.088;2022-10-16T07:32:50;99816.84;;;20.81;64.49
53671;BME280;39571;48.612;8.088;2022-10-16T07:35:15;99828.19;;;20.85;64.21
53671;BME280;39571;48.612;8.088;2022-10-16T07:37:44;99838.81;;;20.85;64.60
53671;BME280;39571;48.612;8.088;2022-10-16T07:40:10;99852.47;;;20.79;65.18
53671;BME280;39571;48.612;8.088;2022-10-16T07:42:35;99862.66;;;20.86;65.68
53671;BME280;39571;48.612;8.088;2022-10-16T07:45:01;99879.00;;;20.96;66.24
53671;BME280;39571;48.612;8.088;2022-10-16T07:47:26;99877.34;;;21.10;67.02
53671;BME280;39571;48.612;8.088;2022-10-16T07:49:51;99873.81;;;21.10;69.71
53671;BME280;39571;48.612;8.088;2022-10-16T07:52:16;99859.50;;;21.28;67.13
53671;BME280;39571;48.612;8.088;2022-10-16T07:54:42;99863.44;;;21.68;68.42
53671;BME280;39571;48.612;8.088;2022-10-16T07:57:07;99861.03;;;21.95;70.03
53671;BME280;39571;48.612;8.088;2022-10-16T07:59:32;99852.03;;;22.11;70.67
53671;BME280;39571;48.612;8.088;2022-10-16T08:01:58;99851.84;;;22.58;69.92
53671;BME280;39571;48.612;8.088;2022-10-16T08:04:23;99851.13;;;22.85;69.34
53671;BME280;39571;48.612;8.088;2022-10-16T08:06:48;99849.63;;;22.95;68.98
53671;BME280;39571;48.612;8.088;2022-10-16T08:09:14;99850.75;;;23.05;68.33
53671;BME280;39571;48.612;8.088;2022-10-16T08:11:40;99866.75;;;23.19;67.66
53671;BME280;39571;48.612;8.088;2022-10-16T08:14:05;99862.75;;;23.26;67.34
53671;BME280;39571;48.612;8.088;2022-10-16T08:16:30;99864.06;;;23.33;66.91
53671;BME280;39571;48.612;8.088;2022-10-16T08:18:56;99866.75;;;23.33;66.58
53671;BME280;39571;48.612;8.088;2022-10-16T08:21:22;99864.94;;;23.34;65.95
53671;BME280;39571;48.612;8.088;2022-10-16T08:23:49;99869.81;;;23.27;67.61
53671;BME280;39571;48.612;8.088;2022-10-16T08:26:14;99872.78;;;23.08;68.36
53671;BME280;39571;48.612;8.088;2022-10-16T08:28:39;99871.56;;;22.86;69.24
53671;BME280;39571;48.612;8.088;2022-10-16T08:33:31;99858.22;;;22.86;68.93
53671;BME280;39571;48.612;8.088;2022-10-16T08:35:56;99857.22;;;22.87;68.93
53671;BME280;39571;48.612;8.088;2022-10-16T08:38:22;99861.50;;;22.89;69.03
53671;BME280;39571;48.612;8.088;2022-10-16T08:40:47;99866.84;;;22.89;69.88
53671;BME280;39571;48.612;8.088;2022-10-16T08:43:25;99873.34;;;22.85;69.76
53671;BME280;39571;48.612;8.088;2022-10-16T08:51:29;99886.38;;;22.76;70.09
53671;BME280;39571;48.612;8.088;2022-10-16T08:53:58;99886.13;;;22.80;69.84
53671;BME280;39571;48.612;8.088;2022-10-16T08:56:25;99886.22;;;22.79;70.02
53671;BME280;39571;48.612;8.088;2022-10-16T08:58:52;99889.66;;;22.81;69.66
53671;BME280;39571;48.612;8.088;2022-10-16T09:01:20;99888.59;;;22.83;69.20
53671;BME280;39571;48.612;8.088;2022-10-16T09:12:17;99891.94;;;23.01;67.03
53671;BME280;39571;48.612;8.088;2022-10-16T09:15:01;99898.22;;;23.00;66.54
53671;BME280;39571;48.612;8.088;2022-10-16T09:23:18;99914.06;;;22.89;64.20
53671;BME280;39571;48.612;8.088;2022-10-16T09:25:47;99917.09;;;22.83;63.81
53671;BME280;39571;48.612;8.088;2022-10-16T09:28:13;99917.56;;;22.75;63.77
53671;BME280;39571;48.612;8.088;2022-10-16T09:30:39;99923.06;;;22.72;63.45
53671;BME280;39571;48.612;8.088;2022-10-16T09:33:05;99921.81;;;22.63;63.21
53671;BME280;39571;48.612;8.088;2022-10-16T09:38:33;99923.31;;;22.53;63.37
53671;BME280;39571;48.612;8.088;2022-10-16T09:41:01;99936.03;;;22.48;63.17
53671;BME280;39571;48.612;8.088;2022-10-16T09:43:32;99928.34;;;22.44;63.10
53671;BME280;39571;48.612;8.088;2022-10-16T09:46:08;99941.75;;;22.42;63.06
53671;BME280;39571;48.612;8.088;2022-10-16T09:48:42;99949.00;;;22.40;62.91
53671;BME280;39571;48.612;8.088;2022-10-16T09:53:46;99951.84;;;22.37;62.88
53671;BME280;39571;48.612;8.088;2022-10-16T09:56:22;99952.78;;;22.36;62.74
53671;BME280;39571;48.612;8.088;2022-10-16T09:58:55;99953.72;;;22.35;62.82
53671;BME280;39571;48.612;8.088;2022-10-16T10:01:24;99954.66;;;22.34;62.60
53671;BME280;39571;48.612;8.088;2022-10-16T10:03:56;99969.91;;;22.32;62.78
53671;BME280;39571;48.612;8.088;2022-10-16T10:06:29;99970.94;;;22.30;62.84
53671;BME280;39571;48.612;8.088;2022-10-16T10:09:28;99969.34;;;22.27;62.91
53671;BME280;39571;48.612;8.088;2022-10-16T10:12:03;99968.38;;;22.28;62.90
53671;BME280;39571;48.612;8.088;2022-10-16T10:14:42;99972.75;;;22.29;62.61
53671;BME280;39571;48.612;8.088;2022-10-16T10:17:21;99968.00;;;22.34;62.78
53671;BME280;39571;48.612;8.088;2022-10-16T10:20:01;99976.25;;;22.45;62.90
53671;BME280;39571;48.612;8.088;2022-10-16T10:36:09;99976.09;;;22.62;61.57
53671;BME280;39571;48.612;8.088;2022-10-16T10:42:15;99986.19;;;22.73;61.31
53671;BME280;39571;48.612;8.088;2022-10-16T10:50:43;99981.81;;;22.56;62.40
53671;BME280;39571;48.612;8.088;2022-10-16T10:55:58;99976.25;;;22.45;62.77
53671;BME280;39571;48.612;8.088;2022-10-16T11:01:40;99976.69;;;22.38;62.87
53671;BME280;39571;48.612;8.088;2022-10-16T11:06:46;99975.06;;;22.35;63.06
53671;BME280;39571;48.612;8.088;2022-10-16T11:09:27;99964.56;;;22.32;63.01
53671;BME280;39571;48.612;8.088;2022-10-16T11:12:40;99967.25;;;22.32;63.02
53671;BME280;39571;48.612;8.088;2022-10-16T11:17:48;99968.38;;;22.28;64.33
53671;BME280;39571;48.612;8.088;2022-10-16T11:20:24;99970.50;;;22.37;65.05
53671;BME280;39571;48.612;8.088;2022-10-16T11:23:01;99971.69;;;22.47;64.41
53671;BME280;39571;48.612;8.088;2022-10-16T11:25:30;99953.41;;;22.55;65.19
53671;BME280;39571;48.612;8.088;2022-10-16T11:28:03;99957.44;;;22.62;65.13
53671;BME280;39571;48.612;8.088;2022-10-16T11:30:41;99964.16;;;22.70;64.43
53671;BME280;39571;48.612;8.088;2022-10-16T11:36:08;99982.66;;;22.73;64.17
53671;BME280;39571;48.612;8.088;2022-10-16T11:41:32;99967.34;;;22.60;63.64
53671;BME280;39571;48.612;8.088;2022-10-16T11:49:41;99958.88;;;22.38;63.24
53671;BME280;39571;48.612;8.088;2022-10-16T11:52:36;99963.63;;;22.33;63.24
53671;BME280;39571;48.612;8.088;2022-10-16T11:55:17;99960.34;;;22.28;62.95
53671;BME280;39571;48.612;8.088;2022-10-16T11:57:51;99951.78;;;22.23;64.04
53671;BME280;39571;48.612;8.088;2022-10-16T12:05:35;99949.38;;;22.19;64.33
53671;BME280;39571;48.612;8.088;2022-10-16T12:08:16;99948.16;;;22.24;64.14
53671;BME280;39571;48.612;8.088;2022-10-16T12:10:44;99942.66;;;22.27;64.02
53671;BME280;39571;48.612;8.088;2022-10-16T12:13:34;99948.00;;;22.27;63.77
53671;BME280;39571;48.612;8.088;2022-10-16T12:18:38;99944.19;;;22.31;63.65
53671;BME280;39571;48.612;8.088;2022-10-16T12:21:04;99945.91;;;22.32;63.56
53671;BME280;39571;48.612;8.088;2022-10-16T12:23:32;99949.50;;;22.31;63.57
53671;BME280;39571;48.612;8.088;2022-10-16T12:25:59;99948.66;;;22.31;63.21
53671;BME280;39571;48.612;8.088;2022-10-16T12:28:29;99952.19;;;22.31;62.89
53671;BME280;39571;48.612;8.088;2022-10-16T12:30:58;99951.50;;;22.28;62.12
53671;BME280;39571;48.612;8.088;2022-10-16T12:33:26;99944.38;;;22.28;61.86
53671;BME280;39571;48.612;8.088;2022-10-16T12:35:53;99949.50;;;22.31;61.52
53671;BME280;39571;48.612;8.088;2022-10-16T12:38:26;99951.25;;;22.32;61.59
53671;BME280;39571;48.612;8.088;2022-10-16T12:41:01;99948.66;;;22.31;61.62
53671;BME280;39571;48.612;8.088;2022-10-16T12:43:42;99948.66;;;22.31;61.89
53671;BME280;39571;48.612;8.088;2022-10-16T12:48:33;99937.34;;;22.27;62.26
53671;BME280;39571;48.612;8.088;2022-10-16T12:51:10;99940.94;;;22.26;62.55
53671;BME280;39571;48.612;8.088;2022-10-16T12:53:36;99938.47;;;22.23;62.50
53671;BME280;39571;48.612;8.088;2022-10-16T13:01:22;99935.06;;;22.35;62.53
53671;BME280;39571;48.612;8.088;2022-10-16T13:13:00;99923.88;;;22.44;64.06
53671;BME280;39571;48.612;8.088;2022-10-16T13:18:22;99925.09;;;22.83;64.55
53671;BME280;39571;48.612;8.088;2022-10-16T13:23:26;99928.56;;;22.99;64.59
53671;BME280;39571;48.612;8.088;2022-10-16T13:26:13;99922.09;;;23.03;64.53
53671;BME280;39571;48.612;8.088;2022-10-16T13:28:42;99922.56;;;23.09;64.76
53671;BME280;39571;48.612;8.088;2022-10-16T13:31:18;99928.38;;;23.16;65.34
53671;BME280;39571;48.612;8.088;2022-10-16T13:33:50;99926.25;;;23.21;65.47
53671;BME280;39571;48.612;8.088;2022-10-16T13:36:24;99930.56;;;23.24;65.91
53671;BME280;39571;48.612;8.088;2022-10-16T13:39:13;99926.84;;;23.26;66.16
53671;BME280;39571;48.612;8.088;2022-10-16T13:41:39;99923.78;;;23.32;65.97
53671;BME280;39571;48.612;8.088;2022-10-16T13:44:05;99923.38;;;23.38;66.53
53671;BME280;39571;48.612;8.088;2022-10-16T13:46:36;99927.53;;;23.44;66.72
53671;BME280;39571;48.612;8.088;2022-10-16T13:49:12;99920.38;;;23.44;66.91
53671;BME280;39571;48.612;8.088;2022-10-16T13:51:37;99920.47;;;23.43;67.11
53671;BME280;39571;48.612;8.088;2022-10-16T13:54:03;99926.47;;;23.46;67.00
53671;BME280;39571;48.612;8.088;2022-10-16T13:56:30;99916.53;;;23.48;67.29
53671;BME280;39571;48.612;8.088;2022-10-16T13:59:22;99910.44;;;23.46;67.56
53671;BME280;39571;48.612;8.088;2022-10-16T14:01:49;99922.00;;;23.47;67.59
53671;BME280;39571;48.612;8.088;2022-10-16T14:04:15;99911.75;;;23.39;67.28
53671;BME280;39571;48.612;8.088;2022-10-16T14:06:43;99916.34;;;23.37;67.76
53671;BME280;39571;48.612;8.088;2022-10-16T14:09:21;99914.06;;;22.89;61.11
53671;BME280;39571;48.612;8.088;2022-10-16T14:12:10;99918.59;;;22.73;60.95
53671;BME280;39571;48.612;8.088;2022-10-16T14:14:45;99919.13;;;22.63;60.91
53671;BME280;39571;48.612;8.088;2022-10-16T14:17:29;99911.19;;;22.62;61.15
53671;BME280;39571;48.612;8.088;2022-10-16T14:19:58;99910.03;;;22.68;62.07
53671;BME280;39571;48.612;8.088;2022-10-16T14:22:42;99917.84;;;22.71;62.65
53671;BME280;39571;48.612;8.088;2022-10-16T14:30:52;99919.69;;;22.54;61.34
53671;BME280;39571;48.612;8.088;2022-10-16T14:33:34;99917.09;;;22.53;61.01
53671;BME280;39571;48.612;8.088;2022-10-16T14:36:13;99914.50;;;22.51;61.17
53671;BME280;39571;48.612;8.088;2022-10-16T14:38:49;99922.72;;;22.48;61.33
53671;BME280;39571;48.612;8.088;2022-10-16T14:41:21;99908.63;;;22.46;60.92
53671;BME280;39571;48.612;8.088;2022-10-16T14:43:50;99919.34;;;22.45;60.95
53671;BME280;39571;48.612;8.088;2022-10-16T14:46:19;99911.53;;;22.42;60.89
53671;BME280;39571;48.612;8.088;2022-10-16T14:48:48;99915.06;;;22.42;60.94
53671;BME280;39571;48.612;8.088;2022-10-16T14:51:19;99917.00;;;22.40;60.78
53671;BME280;39571;48.612;8.088;2022-10-16T14:53:45;99919.66;;;22.40;60.92
53671;BME280;39571;48.612;8.088;2022-10-16T14:56:18;99922.31;;;22.40;61.32
53671;BME280;39571;48.612;8.088;2022-10-16T14:58:44;99920.78;;;22.36;61.37
53671;BME280;39571;48.612;8.088;2022-10-16T15:01:10;99927.16;;;22.34;61.16
53671;BME280;39571;48.612;8.088;2022-10-16T15:03:37;99924.56;;;22.32;61.18
53671;BME280;39571;48.612;8.088;2022-10-16T15:06:02;99923.63;;;22.33;61.55
53671;BME280;39571;48.612;8.088;2022-10-16T15:08:27;99924.56;;;22.32;61.27
53671;BME280;39571;48.612;8.088;2022-10-16T15:10:53;99929.91;;;22.32;61.47